createdAt,value
2022-09-30T00:01:53.669Z,99.90
2022-09-30T00:04:24.327Z,99.90
2022-09-30T00:06:53.521Z,99.90
2022-09-30T00:09:27.698Z,99.90
2022-09-30T00:11:58.082Z,99.90
2022-09-30T00:14:25.733Z,99.90
2022-09-30T00:16:59.841Z,99.90
2022-09-30T00:19:27.404Z,99.90
2022-09-30T00:21:54.947Z,99.90
2022-09-30T00:24:22.563Z,99.90
2022-09-30T00:26:49.914Z,99.90
2022-09-30T00:29:17.320Z,99.90
2022-09-30T00:31:44.998Z,99.90
2022-09-30T00:34:13.065Z,99.90
2022-09-30T00:36:46.336Z,99.90
2022-09-30T00:39:17.099Z,99.90
2022-09-30T00:41:48.179Z,99.90
2022-09-30T00:44:48.254Z,99.90
2022-09-30T00:47:25.056Z,99.90
2022-09-30T00:49:53.281Z,99.90
2022-09-30T00:52:20.728Z,99.90
2022-09-30T00:54:55.873Z,99.90
2022-09-30T00:57:23.275Z,99.90
2022-09-30T00:59:52.074Z,99.90
2022-09-30T01:02:20.447Z,99.90
2022-09-30T01:04:52.371Z,99.90
2022-09-30T01:07:20.895Z,99.90
2022-09-30T01:09:49.202Z,99.90
2022-09-30T01:12:23.085Z,99.90
2022-09-30T01:14:55.147Z,99.90
2022-09-30T01:17:49.568Z,99.90
2022-09-30T01:20:47.036Z,99.90
2022-09-30T01:23:53.002Z,99.90
2022-09-30T01:26:32.299Z,99.90
2022-09-30T01:29:27.299Z,99.90
2022-09-30T01:32:03.607Z,99.90
2022-09-30T01:35:05.006Z,99.90
2022-09-30T01:38:01.891Z,99.90
2022-09-30T01:41:00.774Z,99.90
2022-09-30T01:43:51.758Z,99.90
2022-09-30T01:46:53.452Z,99.90
2022-09-30T01:49:27.404Z,99.90
2022-09-30T01:52:20.983Z,99.90
2022-09-30T01:55:21.912Z,99.90
2022-09-30T01:58:06.511Z,99.90
2022-09-30T02:00:39.413Z,99.90
2022-09-30T02:03:16.252Z,99.90
2022-09-30T02:05:51.486Z,99.90
2022-09-30T02:08:25.122Z,99.90
2022-09-30T02:11:03.347Z,99.90
2022-09-30T02:14:00.602Z,99.90
2022-09-30T02:16:46.206Z,99.90
2022-09-30T02:19:32.056Z,99.90
2022-09-30T02:22:16.375Z,99.90
2022-09-30T02:24:46.241Z,99.90
2022-09-30T02:27:22.403Z,99.90
2022-09-30T02:29:55.965Z,99.90
2022-09-30T02:32:33.897Z,99.90
2022-09-30T02:35:06.785Z,99.90
2022-09-30T02:37:44.637Z,99.90
2022-09-30T02:40:50.831Z,99.90
2022-09-30T02:43:20.806Z,99.90
2022-09-30T02:46:21.229Z,99.90
2022-09-30T02:48:55.947Z,99.90
2022-09-30T02:51:44.039Z,99.90
2022-09-30T02:54:55.416Z,99.90
2022-09-30T02:57:38.332Z,99.90
2022-09-30T03:00:12.479Z,99.90
2022-09-30T03:02:41.768Z,99.90
2022-09-30T03:05:10.354Z,99.90
2022-09-30T03:07:38.588Z,99.90
2022-09-30T03:10:16.641Z,99.90
2022-09-30T03:13:07.937Z,99.90
2022-09-30T03:16:03.274Z,99.90
2022-09-30T03:18:49.387Z,99.90
2022-09-30T03:21:40.318Z,99.90
2022-09-30T03:24:27.384Z,99.90
2022-09-30T03:26:58.928Z,99.90
2022-09-30T03:29:31.236Z,99.90
2022-09-30T03:32:17.616Z,99.90
2022-09-30T03:35:04.126Z,99.90
2022-09-30T03:37:49.768Z,99.90
2022-09-30T03:40:33.182Z,99.90
2022-09-30T03:43:12.855Z,99.90
2022-09-30T03:45:55.628Z,99.90
2022-09-30T03:48:24.714Z,99.90
2022-09-30T03:50:53.326Z,99.90
2022-09-30T03:53:21.269Z,99.90
2022-09-30T03:55:51.473Z,99.90
2022-09-30T03:58:22.265Z,99.90
2022-09-30T04:00:54.756Z,99.90
2022-09-30T04:03:23.560Z,99.90
2022-09-30T04:05:50.878Z,99.90
2022-09-30T04:08:18.295Z,99.90
2022-09-30T04:10:46.735Z,99.90
2022-09-30T04:13:15.311Z,99.90
2022-09-30T04:15:42.662Z,99.90
2022-09-30T04:18:09.970Z,99.90
2022-09-30T04:20:39.510Z,99.90
2022-09-30T04:23:07.312Z,99.90
2022-09-30T04:25:34.621Z,99.90
2022-09-30T04:28:04.600Z,99.90
2022-09-30T04:30:33.727Z,99.90
2022-09-30T04:33:01.349Z,99.90
2022-09-30T04:35:30.276Z,99.90
2022-09-30T04:37:57.745Z,99.90
2022-09-30T04:40:25.559Z,99.90
2022-09-30T04:42:58.331Z,99.90
2022-09-30T04:45:26.242Z,99.90
2022-09-30T04:47:53.976Z,99.90
2022-09-30T04:50:21.636Z,99.90
2022-09-30T04:52:50.902Z,99.90
2022-09-30T04:55:18.293Z,99.90
2022-09-30T04:57:46.039Z,99.90
2022-09-30T05:00:14.907Z,99.90
2022-09-30T05:02:44.926Z,99.90
2022-09-30T05:05:14.741Z,99.90
2022-09-30T05:07:42.174Z,99.90
2022-09-30T05:10:11.376Z,99.90
2022-09-30T05:12:46.638Z,99.90
2022-09-30T05:15:13.996Z,99.90
2022-09-30T05:17:41.422Z,99.90
2022-09-30T05:20:11.037Z,99.90
2022-09-30T05:22:38.689Z,99.90
2022-09-30T05:25:09.682Z,99.90
2022-09-30T05:27:37.588Z,99.90
2022-09-30T05:30:06.770Z,99.90
2022-09-30T05:32:34.138Z,99.90
2022-09-30T05:35:03.721Z,99.90
2022-09-30T05:37:31.616Z,99.90
2022-09-30T05:39:59.423Z,99.90
2022-09-30T05:42:26.778Z,99.90
2022-09-30T05:44:54.028Z,99.90
2022-09-30T05:47:21.505Z,99.90
2022-09-30T05:49:51.115Z,99.90
2022-09-30T05:52:22.772Z,99.90
2022-09-30T05:54:50.851Z,99.90
2022-09-30T05:57:18.350Z,99.90
2022-09-30T05:59:45.758Z,99.90
2022-09-30T06:02:15.529Z,99.90
2022-09-30T06:04:42.863Z,99.90
2022-09-30T06:07:10.747Z,99.90
2022-09-30T06:09:38.609Z,99.90
2022-09-30T06:12:07.060Z,99.90
2022-09-30T06:14:34.613Z,99.90
2022-09-30T06:17:05.378Z,99.90
2022-09-30T06:19:33.079Z,99.90
2022-09-30T06:22:00.689Z,99.90
2022-09-30T06:24:28.103Z,99.90
2022-09-30T06:26:55.422Z,99.90
2022-09-30T06:29:22.820Z,99.90
2022-09-30T06:31:50.175Z,99.90
2022-09-30T06:34:17.591Z,99.90
2022-09-30T06:36:44.812Z,99.90
2022-09-30T06:39:13.765Z,99.90
2022-09-30T06:41:44.200Z,99.90
2022-09-30T06:44:22.247Z,99.90
2022-09-30T06:46:53.934Z,99.90
2022-09-30T06:49:22.201Z,99.90
2022-09-30T06:51:51.545Z,99.90
2022-09-30T06:54:22.756Z,99.90
2022-09-30T06:56:52.683Z,99.90
2022-09-30T06:59:19.948Z,99.90
2022-09-30T07:01:47.562Z,99.90
2022-09-30T07:04:15.192Z,99.90
2022-09-30T07:06:45.699Z,99.90
2022-09-30T07:09:13.614Z,99.90
2022-09-30T07:11:41.382Z,99.90
2022-09-30T07:14:13.544Z,99.90
2022-09-30T07:16:40.995Z,99.90
2022-09-30T07:19:10.337Z,99.90
2022-09-30T07:21:38.031Z,99.90
2022-09-30T07:24:05.794Z,99.90
2022-09-30T07:26:33.756Z,99.90
2022-09-30T07:29:02.227Z,99.90
2022-09-30T07:31:34.632Z,99.90
2022-09-30T07:34:07.853Z,99.90
2022-09-30T07:36:37.998Z,99.90
2022-09-30T07:39:09.927Z,99.90
2022-09-30T07:41:44.413Z,99.90
2022-09-30T07:44:14.863Z,99.90
2022-09-30T07:46:45.418Z,99.90
2022-09-30T07:49:20.964Z,99.90
2022-09-30T07:51:48.377Z,99.90
2022-09-30T07:54:18.315Z,99.90
2022-09-30T07:59:37.813Z,99.90
2022-09-30T08:02:07.096Z,99.90
2022-09-30T08:04:36.573Z,99.90
2022-09-30T08:07:06.704Z,99.90
2022-09-30T08:09:35.124Z,99.90
2022-09-30T08:12:04.550Z,99.90
2022-09-30T08:14:32.551Z,99.90
2022-09-30T08:17:00.766Z,99.90
2022-09-30T08:19:30.610Z,99.90
2022-09-30T08:21:58.724Z,99.90
2022-09-30T08:24:27.090Z,99.90
2022-09-30T08:26:55.681Z,99.90
2022-09-30T08:32:13.674Z,99.90
2022-09-30T08:34:41.025Z,99.90
2022-09-30T08:37:10.347Z,99.90
2022-09-30T08:39:39.058Z,99.90
2022-09-30T08:42:36.040Z,99.90
2022-09-30T08:45:34.529Z,99.90
2022-09-30T08:48:20.633Z,99.90
2022-09-30T08:51:13.444Z,99.90
2022-09-30T08:53:44.010Z,99.90
2022-09-30T08:56:24.048Z,99.90
2022-09-30T08:58:57.293Z,99.90
2022-09-30T09:01:30.344Z,99.90
2022-09-30T09:03:59.539Z,99.90
2022-09-30T09:06:50.556Z,99.90
2022-09-30T09:09:38.891Z,99.90
2022-09-30T09:12:44.165Z,99.90
2022-09-30T09:15:36.706Z,99.90
2022-09-30T09:18:25.230Z,99.90
2022-09-30T09:20:58.365Z,99.90
2022-09-30T09:23:28.658Z,99.90
2022-09-30T09:25:56.126Z,99.90
2022-09-30T09:29:01.498Z,99.90
2022-09-30T09:31:28.994Z,99.90
2022-09-30T09:34:07.820Z,99.90
2022-09-30T09:37:46.284Z,99.90
2022-09-30T09:40:36.120Z,99.90
2022-09-30T09:43:16.644Z,99.90
2022-09-30T09:46:09.698Z,99.90
2022-09-30T09:48:37.403Z,99.90
2022-09-30T09:51:24.694Z,99.90
2022-09-30T09:53:58.345Z,99.90
2022-09-30T09:56:35.059Z,99.90
2022-09-30T09:59:19.992Z,99.90
2022-09-30T10:01:53.068Z,99.90
2022-09-30T10:04:30.491Z,99.90
2022-09-30T10:07:00.895Z,99.90
2022-09-30T10:09:35.687Z,99.90
2022-09-30T10:12:06.055Z,99.90
2022-09-30T10:14:35.902Z,99.90
2022-09-30T10:17:05.998Z,99.90
2022-09-30T10:19:35.102Z,99.90
2022-09-30T10:22:12.126Z,99.90
2022-09-30T10:24:40.370Z,99.90
2022-09-30T10:27:52.053Z,99.90
2022-09-30T10:30:55.970Z,99.90
2022-09-30T10:33:29.077Z,99.90
2022-09-30T10:36:14.948Z,99.90
2022-09-30T10:39:24.954Z,99.90
2022-09-30T10:42:08.983Z,99.90
2022-09-30T10:44:47.787Z,99.90
2022-09-30T10:47:19.759Z,99.90
2022-09-30T10:50:10.390Z,99.90
2022-09-30T10:52:53.552Z,99.90
2022-09-30T10:55:20.967Z,98.40
2022-09-30T10:57:50.663Z,99.20
2022-09-30T11:00:27.995Z,99.40
2022-09-30T11:03:17.615Z,99.60
2022-09-30T11:05:46.852Z,97.40
2022-09-30T11:08:22.819Z,95.10
2022-09-30T11:11:14.375Z,94.70
2022-09-30T11:13:57.166Z,94.60
2022-09-30T11:16:47.070Z,93.70
2022-09-30T11:19:27.119Z,91.70
2022-09-30T11:21:57.245Z,90.70
2022-09-30T11:24:36.982Z,86.40
2022-09-30T11:27:25.233Z,84.40
2022-09-30T11:30:28.086Z,82.60
2022-09-30T11:33:10.731Z,81.50
2022-09-30T11:35:57.644Z,80.10
2022-09-30T11:39:01.903Z,87.90
2022-09-30T11:41:32.791Z,90.60
2022-09-30T11:44:35.506Z,90.50
2022-09-30T11:47:21.999Z,89.50
2022-09-30T11:50:07.572Z,88.20
2022-09-30T11:52:59.797Z,89.80
2022-09-30T11:56:26.093Z,88.30
2022-09-30T11:58:58.670Z,87.80
2022-09-30T12:01:50.217Z,89.00
2022-09-30T12:04:29.540Z,89.30
2022-09-30T12:07:01.734Z,90.20
2022-09-30T12:09:53.921Z,90.10
2022-09-30T12:12:21.366Z,86.30
2022-09-30T12:15:05.975Z,82.40
2022-09-30T12:17:46.797Z,81.40
2022-09-30T12:20:34.947Z,80.90
2022-09-30T12:23:21.205Z,80.30
2022-09-30T12:26:06.935Z,76.20
2022-09-30T12:28:53.061Z,74.30
2022-09-30T12:31:48.384Z,75.20
2022-09-30T12:35:01.569Z,78.30
2022-09-30T12:38:02.568Z,83.20
2022-09-30T12:40:52.327Z,86.50
2022-09-30T12:43:51.499Z,89.60
2022-09-30T12:46:30.597Z,89.70
2022-09-30T12:49:03.946Z,87.10
2022-09-30T12:51:37.704Z,84.90
2022-09-30T12:54:16.688Z,78.40
2022-09-30T12:56:47.190Z,79.20
2022-09-30T12:59:15.588Z,78.80
2022-09-30T13:01:43.278Z,79.00
2022-09-30T13:04:18.346Z,78.70
2022-09-30T13:06:45.635Z,77.70
2022-09-30T13:09:30.115Z,78.60
2022-09-30T13:12:00.387Z,78.10
2022-09-30T13:14:35.243Z,76.70
2022-09-30T13:17:08.526Z,77.10
2022-09-30T13:19:42.836Z,76.80
2022-09-30T13:22:19.204Z,77.60
2022-09-30T13:25:03.301Z,78.60
2022-09-30T13:27:36.720Z,78.50
2022-09-30T13:30:16.183Z,79.90
2022-09-30T13:32:51.641Z,80.20
2022-09-30T13:35:51.066Z,79.20
2022-09-30T13:38:24.523Z,78.20
2022-09-30T13:41:03.005Z,78.80
2022-09-30T13:43:42.827Z,78.60
2022-09-30T13:46:37.277Z,78.40
2022-09-30T13:49:33.551Z,77.80
2022-09-30T13:52:02.678Z,78.60
2022-09-30T13:54:37.854Z,78.70
2022-09-30T13:57:07.614Z,78.70
2022-09-30T13:59:51.079Z,77.50
2022-09-30T14:02:55.175Z,78.50
2022-09-30T14:05:51.059Z,79.50
2022-09-30T14:08:29.354Z,79.90
2022-09-30T14:11:22.582Z,79.00
2022-09-30T14:14:07.442Z,80.30
2022-09-30T14:16:47.603Z,81.20
2022-09-30T14:19:22.481Z,82.20
2022-09-30T14:21:58.832Z,82.70
2022-09-30T14:24:31.784Z,85.00
2022-09-30T14:27:09.881Z,85.50
2022-09-30T14:29:55.050Z,87.60
2022-09-30T14:32:46.393Z,87.30
2022-09-30T14:35:37.453Z,87.40
2022-09-30T14:38:29.659Z,89.40
2022-09-30T14:41:09.330Z,89.70
2022-09-30T14:43:43.062Z,90.30
2022-09-30T14:46:35.419Z,90.90
2022-09-30T14:49:08.553Z,90.40
2022-09-30T14:51:47.281Z,90.20
2022-09-30T14:54:22.819Z,90.60
2022-09-30T14:56:51.186Z,90.40
2022-09-30T14:59:27.816Z,90.60
2022-09-30T15:02:23.363Z,91.10
2022-09-30T15:05:00.451Z,91.10
2022-09-30T15:07:28.733Z,91.40
2022-09-30T15:10:01.871Z,92.00
2022-09-30T15:12:31.738Z,92.50
2022-09-30T15:15:00.640Z,92.90
2022-09-30T15:17:37.220Z,92.60
2022-09-30T15:20:24.576Z,93.10
2022-09-30T15:22:53.633Z,93.30
2022-09-30T15:25:22.132Z,93.80
2022-09-30T15:27:50.501Z,94.40
2022-09-30T15:30:18.474Z,95.30
2022-09-30T15:32:50.262Z,95.90
2022-09-30T15:35:24.157Z,96.60
2022-09-30T15:37:52.512Z,97.50
2022-09-30T15:40:40.993Z,98.00
2022-09-30T15:43:11.972Z,98.80
2022-09-30T15:45:43.607Z,99.10
2022-09-30T15:48:13.769Z,99.90
2022-09-30T15:50:49.347Z,99.90
2022-09-30T15:53:25.352Z,99.90
2022-09-30T15:55:55.990Z,99.90
2022-09-30T15:58:35.156Z,99.90
2022-09-30T16:01:25.145Z,99.90
2022-09-30T16:04:00.873Z,99.90
2022-09-30T16:06:35.323Z,99.90
2022-09-30T16:09:08.646Z,99.90
2022-09-30T16:11:42.414Z,99.90
2022-09-30T16:14:27.654Z,99.90
2022-09-30T16:16:58.681Z,99.90
2022-09-30T16:19:35.111Z,99.90
2022-09-30T16:22:05.519Z,99.90
2022-09-30T16:24:32.902Z,99.90
2022-09-30T16:27:19.864Z,99.90
2022-09-30T16:29:47.584Z,99.90
2022-09-30T16:32:17.288Z,99.90
2022-09-30T16:34:44.698Z,99.90
2022-09-30T16:37:14.163Z,99.90
2022-09-30T16:39:41.821Z,99.90
2022-09-30T16:42:16.974Z,99.90
2022-09-30T16:44:45.478Z,99.90
2022-09-30T16:47:17.878Z,99.90
2022-09-30T16:49:48.464Z,99.90
2022-09-30T16:52:17.624Z,99.90
2022-09-30T16:54:45.529Z,99.90
2022-09-30T16:57:14.382Z,99.90
2022-09-30T16:59:41.675Z,99.90
2022-09-30T17:02:14.159Z,99.90
2022-09-30T17:04:41.629Z,99.90
2022-09-30T17:07:14.520Z,99.90
2022-09-30T17:09:43.166Z,99.90
2022-09-30T17:12:13.681Z,99.90
2022-09-30T17:14:43.867Z,99.90
2022-09-30T17:17:14.202Z,99.90
2022-09-30T17:19:41.650Z,99.90
2022-09-30T17:22:09.160Z,99.90
2022-09-30T17:24:36.431Z,99.90
2022-09-30T17:27:03.931Z,99.90
2022-09-30T17:29:38.862Z,99.90
2022-09-30T17:32:09.340Z,99.90
2022-09-30T17:34:36.611Z,99.90
2022-09-30T17:37:04.048Z,99.90
2022-09-30T17:39:31.391Z,99.90
2022-09-30T17:42:16.862Z,99.90
2022-09-30T17:44:45.444Z,99.90
2022-09-30T17:47:12.826Z,99.90
2022-09-30T17:49:40.458Z,99.90
2022-09-30T17:52:07.831Z,99.90
2022-09-30T17:54:36.044Z,99.90
2022-09-30T17:57:03.762Z,99.90
2022-09-30T17:59:31.230Z,99.90
2022-09-30T18:01:58.705Z,99.90
2022-09-30T18:04:26.990Z,99.90
2022-09-30T18:06:57.904Z,99.90
2022-09-30T18:09:25.398Z,99.90
2022-09-30T18:11:53.569Z,99.90
2022-09-30T18:14:21.094Z,99.90
2022-09-30T18:16:48.502Z,99.90
2022-09-30T18:19:18.834Z,99.90
2022-09-30T18:21:46.637Z,99.90
2022-09-30T18:24:14.024Z,99.90
2022-09-30T18:26:41.481Z,99.90
2022-09-30T18:29:09.012Z,99.90
2022-09-30T18:31:37.768Z,99.90
2022-09-30T18:34:06.572Z,99.90
2022-09-30T18:36:34.118Z,99.90
2022-09-30T18:39:02.765Z,99.90
2022-09-30T18:41:31.877Z,99.90
2022-09-30T18:44:03.055Z,99.90
2022-09-30T18:46:31.879Z,99.90
2022-09-30T18:48:59.340Z,99.90
2022-09-30T18:51:26.787Z,99.90
2022-09-30T18:53:59.258Z,99.90
2022-09-30T18:56:32.285Z,99.90
2022-09-30T19:01:40.286Z,99.90
2022-09-30T19:04:07.813Z,99.90
2022-09-30T19:06:37.571Z,99.90
2022-09-30T19:09:06.742Z,99.90
2022-09-30T19:11:35.368Z,99.90
2022-09-30T19:14:05.916Z,99.90
2022-09-30T19:16:38.520Z,99.90
2022-09-30T19:19:10.976Z,99.90
2022-09-30T19:21:39.612Z,99.90
2022-09-30T19:24:09.117Z,99.90
2022-09-30T19:26:40.425Z,99.90
2022-09-30T19:29:09.797Z,99.90
2022-09-30T19:31:37.827Z,99.90
2022-09-30T19:34:18.991Z,99.90
2022-09-30T19:36:52.046Z,99.90
2022-09-30T19:39:20.032Z,99.90
2022-09-30T19:41:48.048Z,99.90
2022-09-30T19:44:19.210Z,99.90
2022-09-30T19:46:52.659Z,99.90
2022-09-30T19:49:21.764Z,99.90
2022-09-30T19:51:55.221Z,99.90
2022-09-30T19:54:37.715Z,99.90
2022-09-30T19:57:09.742Z,99.90
2022-09-30T19:59:37.087Z,99.90
2022-09-30T20:02:04.672Z,99.90
2022-09-30T20:04:34.443Z,99.90
2022-09-30T20:07:02.399Z,99.90
2022-09-30T20:09:32.728Z,99.90
2022-09-30T20:12:00.271Z,99.90
2022-09-30T20:14:45.979Z,99.90
2022-09-30T20:17:15.751Z,99.90
2022-09-30T20:19:43.151Z,99.90
2022-09-30T20:22:10.700Z,99.90
2022-09-30T20:24:40.607Z,99.90
2022-09-30T20:27:08.371Z,99.90
2022-09-30T20:29:35.659Z,99.90
2022-09-30T20:32:03.856Z,99.90
2022-09-30T20:34:34.452Z,99.90
2022-09-30T20:37:04.179Z,99.90
2022-09-30T20:39:31.573Z,99.90
2022-09-30T20:41:59.851Z,99.90
2022-09-30T20:44:27.204Z,99.90
2022-09-30T20:46:54.640Z,99.90
2022-09-30T20:49:22.047Z,99.90
2022-09-30T20:51:49.954Z,99.90
2022-09-30T20:54:17.387Z,99.90
2022-09-30T20:57:06.804Z,99.90
2022-09-30T20:59:35.617Z,99.90
2022-09-30T21:02:03.052Z,99.90
2022-09-30T21:04:30.545Z,99.90
2022-09-30T21:07:00.135Z,99.90
2022-09-30T21:09:27.569Z,99.90
2022-09-30T21:11:54.880Z,99.90
2022-09-30T21:14:22.356Z,99.90
2022-09-30T21:16:49.782Z,99.90
2022-09-30T21:19:18.891Z,99.90
2022-09-30T21:21:46.853Z,99.90
2022-09-30T21:24:16.502Z,99.90
2022-09-30T21:26:43.841Z,99.90
2022-09-30T21:29:11.211Z,99.90
2022-09-30T21:31:39.128Z,99.90
2022-09-30T21:34:06.583Z,99.90
2022-09-30T21:36:33.989Z,99.90
2022-09-30T21:39:04.923Z,99.90
2022-09-30T21:41:33.988Z,99.90
2022-09-30T21:44:03.707Z,99.90
2022-09-30T21:46:31.532Z,99.90
2022-09-30T21:49:24.917Z,99.90
2022-09-30T21:51:55.873Z,99.90
2022-09-30T21:54:23.531Z,99.90
2022-09-30T21:56:51.653Z,99.90
2022-09-30T21:59:19.590Z,99.90
2022-09-30T22:01:52.280Z,99.90
2022-09-30T22:04:21.991Z,99.90
2022-09-30T22:06:52.319Z,99.90
2022-09-30T22:09:19.760Z,99.90
2022-09-30T22:11:48.234Z,99.90
2022-09-30T22:14:16.102Z,99.90
2022-09-30T22:16:44.593Z,99.90
2022-09-30T22:19:12.607Z,99.90
2022-09-30T22:21:40.264Z,99.90
2022-09-30T22:24:09.515Z,99.90
2022-09-30T22:26:38.067Z,99.90
2022-09-30T22:29:11.462Z,99.90
2022-09-30T22:31:39.642Z,99.90
2022-09-30T22:34:32.821Z,99.90
2022-09-30T22:37:18.611Z,99.90
2022-09-30T22:39:46.055Z,99.90
2022-09-30T22:42:13.504Z,99.90
2022-09-30T22:44:40.964Z,99.90
2022-09-30T22:47:11.434Z,99.90
2022-09-30T22:49:38.983Z,99.90
2022-09-30T22:52:06.904Z,99.90
2022-09-30T22:54:36.162Z,99.90
2022-09-30T22:57:04.655Z,99.90
2022-09-30T22:59:32.444Z,99.90
2022-09-30T23:01:59.942Z,99.90
2022-09-30T23:04:27.812Z,99.90
2022-09-30T23:06:55.857Z,99.90
2022-09-30T23:09:23.758Z,99.90
2022-09-30T23:11:55.398Z,99.90
2022-09-30T23:14:24.909Z,99.90
2022-09-30T23:16:52.383Z,99.90
2022-09-30T23:19:20.318Z,99.90
2022-09-30T23:21:48.039Z,99.90
2022-09-30T23:24:15.817Z,99.90
2022-09-30T23:26:43.744Z,99.90
2022-09-30T23:29:15.094Z,99.90
2022-09-30T23:31:42.720Z,99.90
2022-09-30T23:34:10.291Z,99.90
2022-09-30T23:36:38.389Z,99.90
2022-09-30T23:39:13.360Z,99.90
2022-09-30T23:41:41.257Z,99.90
2022-09-30T23:44:10.192Z,99.90
2022-09-30T23:46:37.628Z,99.90
2022-09-30T23:49:05.037Z,99.90
2022-09-30T23:51:34.411Z,99.90
2022-09-30T23:54:04.429Z,99.90
2022-09-30T23:56:33.089Z,99.90
2022-09-30T23:59:03.467Z,99.90
